Time;durP1;ratioP1;P1;durP2;ratioP2;P2;SDS_P1;SDS_P2;PMS_P1;PMS_P2;Temp;Humidity;BMP_temperature;BMP_pressure;BME280_temperature;BME280_humidity;BME280_pressure;Samples;Min_cycle;Max_cycle;Signal;HPM_P1;HPM_P2
2021/05/24 00:00:40;;;;;;;1.40;1.10;;;;;;;10.76;67.99;96420.78;5022203;28;20123;-65
2021/05/24 00:03:06;;;;;;;4.57;1.20;;;;;;;10.74;68.07;96401.22;5023057;28;20056;-65
2021/05/24 00:05:35;;;;;;;2.45;1.50;;;;;;;10.68;67.99;96393.19;5022379;28;20084;-65
2021/05/24 00:08:02;;;;;;;2.22;1.13;;;;;;;10.66;67.98;96390.00;5022844;28;20160;-65
2021/05/24 00:10:31;;;;;;;1.80;1.10;;;;;;;10.64;68.09;96389.50;5022511;28;20048;-65
2021/05/24 00:13:00;;;;;;;2.40;1.30;;;;;;;10.61;68.03;96381.97;5022101;28;20076;-65
2021/05/24 00:15:28;;;;;;;2.90;1.23;;;;;;;10.59;68.07;96378.75;5022842;28;20049;-65
2021/05/24 00:17:55;;;;;;;3.97;1.48;;;;;;;10.55;67.55;96364.19;5022664;28;20052;-65
2021/05/24 00:20:23;;;;;;;3.13;1.15;;;;;;;10.52;68.20;96356.66;5022280;28;20049;-65
2021/05/24 00:22:50;;;;;;;5.18;1.30;;;;;;;10.53;68.28;96360.16;5022598;28;20045;-64
2021/05/24 00:25:16;;;;;;;2.83;1.40;;;;;;;10.52;68.07;96361.28;5022000;28;20046;-65
2021/05/24 00:27:43;;;;;;;3.85;1.42;;;;;;;10.50;68.13;96353.44;5022097;28;20092;-64
2021/05/24 00:30:11;;;;;;;2.17;1.23;;;;;;;10.47;68.13;96359.53;5022292;28;20785;-66
2021/05/24 00:32:38;;;;;;;2.38;1.40;;;;;;;10.47;68.18;96358.72;5022825;28;20056;-64
2021/05/24 00:35:05;;;;;;;1.95;1.33;;;;;;;10.51;68.62;96354.25;5022203;28;20054;-66
2021/05/24 00:37:31;;;;;;;2.50;1.30;;;;;;;10.44;68.53;96349.28;5022103;28;20056;-66
2021/05/24 00:39:58;;;;;;;1.77;1.25;;;;;;;10.43;68.35;96359.34;5021523;28;20049;-67
2021/05/24 00:42:24;;;;;;;2.80;1.20;;;;;;;10.43;68.61;96353.91;5021997;28;20049;-66
2021/05/24 00:44:50;;;;;;;4.15;1.45;;;;;;;10.45;68.96;96345.44;5021931;28;20080;-67
2021/05/24 00:47:16;;;;;;;4.75;1.30;;;;;;;10.44;69.10;96344.63;5021548;28;20049;-67
2021/05/24 00:49:44;;;;;;;1.70;1.30;;;;;;;10.41;68.76;96345.25;5022554;28;20115;-65
2021/05/24 00:52:10;;;;;;;2.35;1.30;;;;;;;10.40;68.44;96329.25;5021524;28;20053;-65
2021/05/24 00:54:36;;;;;;;2.88;1.73;;;;;;;10.39;68.81;96335.81;5021784;28;20037;-64
2021/05/24 00:57:04;;;;;;;2.08;1.20;;;;;;;10.38;68.71;96340.44;5021978;28;20072;-67
2021/05/24 00:59:30;;;;;;;3.72;1.63;;;;;;;10.37;68.51;96335.31;5021211;28;20072;-65
2021/05/24 01:01:56;;;;;;;1.88;1.58;;;;;;;10.38;68.64;96328.75;5020914;28;20041;-65
2021/05/24 01:04:22;;;;;;;3.55;1.52;;;;;;;10.38;68.96;96328.75;5020179;28;20045;-65
2021/05/24 01:06:49;;;;;;;2.50;1.52;;;;;;;10.39;68.80;96331.16;5021004;28;20516;-65
2021/05/24 01:09:17;;;;;;;3.83;1.48;;;;;;;10.38;68.73;96320.56;5021623;28;20042;-65
2021/05/24 01:11:43;;;;;;;2.38;1.38;;;;;;;10.35;68.76;96323.94;5021316;28;20053;-65
2021/05/24 01:14:10;;;;;;;3.20;1.83;;;;;;;10.34;68.14;96322.34;5021440;28;20052;-66
2021/05/24 01:16:36;;;;;;;2.70;1.60;;;;;;;10.30;68.43;96299.59;5021602;28;20052;-65
2021/05/24 01:19:02;;;;;;;2.40;1.40;;;;;;;10.28;68.67;96307.25;5021453;28;20409;-65
2021/05/24 01:21:29;;;;;;;2.22;1.50;;;;;;;10.26;68.27;96304.06;5021394;28;20051;-65
2021/05/24 01:23:55;;;;;;;4.03;1.80;;;;;;;10.26;68.50;96304.06;5021091;28;20052;-64
2021/05/24 01:26:21;;;;;;;2.80;1.70;;;;;;;10.25;69.09;96302.47;5021265;28;20057;-65
2021/05/24 01:28:47;;;;;;;2.53;1.52;;;;;;;10.24;69.48;96306.31;5021206;28;20057;-65
2021/05/24 01:31:15;;;;;;;3.58;1.80;;;;;;;10.22;69.16;96297.63;5021354;28;20128;-64
2021/05/24 01:33:41;;;;;;;2.97;1.60;;;;;;;10.17;69.11;96291.19;5021196;28;20041;-65
2021/05/24 01:36:09;;;;;;;3.92;1.58;;;;;;;10.16;69.42;96286.88;5020758;28;20064;-64
2021/05/24 01:38:37;;;;;;;4.55;1.65;;;;;;;10.12;69.20;96277.75;5020957;28;20049;-65
2021/05/24 01:41:04;;;;;;;2.78;1.80;;;;;;;10.11;69.51;96278.88;5020939;28;20046;-65
2021/05/24 01:43:31;;;;;;;3.08;1.38;;;;;;;10.08;69.32;96271.34;5021182;28;20053;-65
2021/05/24 01:45:57;;;;;;;4.00;1.77;;;;;;;10.06;69.13;96262.69;5020645;28;20684;-65
2021/05/24 01:48:24;;;;;;;2.35;1.58;;;;;;;10.02;69.29;96256.28;5020637;28;20064;-65
2021/05/24 01:50:51;;;;;;;1.92;1.48;;;;;;;9.98;69.47;96244.44;5021932;28;20056;-65
2021/05/24 01:53:17;;;;;;;5.18;2.10;;;;;;;9.97;69.53;96237.41;5020492;28;20575;-65
2021/05/24 01:55:44;;;;;;;3.40;1.80;;;;;;;9.98;69.86;96222.69;5020939;28;20072;-66
2021/05/24 01:58:10;;;;;;;3.47;1.90;;;;;;;9.99;70.18;96216.13;5020517;28;20049;-65
2021/05/24 02:00:37;;;;;;;2.97;1.88;;;;;;;9.97;69.84;96220.25;5020347;28;20049;-65
2021/05/24 02:03:03;;;;;;;2.45;1.60;;;;;;;9.92;69.44;96223.97;5020950;28;20053;-65
2021/05/24 02:05:30;;;;;;;3.08;1.73;;;;;;;9.90;69.65;96231.63;5021301;28;20053;-65
2021/05/24 02:07:59;;;;;;;3.15;1.70;;;;;;;9.87;69.76;96230.34;5021108;28;20570;-65
2021/05/24 02:10:27;;;;;;;4.18;1.80;;;;;;;9.87;70.14;96229.53;5020163;28;20045;-65
2021/05/24 02:12:54;;;;;;;2.95;1.60;;;;;;;9.87;70.62;96233.06;5020110;28;20705;-65
2021/05/24 02:15:22;;;;;;;2.88;1.55;;;;;;;9.85;70.31;96239.91;5020390;28;20049;-65
2021/05/24 02:17:48;;;;;;;2.53;1.55;;;;;;;9.84;70.06;96239.13;5024396;28;20699;-65
2021/05/24 02:20:18;;;;;;;2.47;1.70;;;;;;;9.83;70.20;96231.28;5024763;28;20048;-65
2021/05/24 02:22:44;;;;;;;2.53;1.90;;;;;;;9.85;70.76;96226.31;5024368;28;20048;-65
2021/05/24 02:25:10;;;;;;;4.22;1.88;;;;;;;9.85;70.76;96223.59;5024096;28;20053;-65
2021/05/24 02:27:36;;;;;;;2.63;1.60;;;;;;;9.81;70.57;96211.75;5024107;28;20045;-65
2021/05/24 02:30:04;;;;;;;4.20;1.80;;;;;;;9.78;70.03;96212.41;5024517;28;20045;-65
2021/05/24 02:32:30;;;;;;;6.13;1.83;;;;;;;9.77;70.68;96200.72;5024567;28;20050;-66
2021/05/24 02:34:56;;;;;;;4.10;2.00;;;;;;;9.77;70.48;96205.34;5023918;28;20072;-65
2021/05/24 02:37:23;;;;;;;4.78;1.85;;;;;;;9.73;70.37;96202.47;5024464;28;20056;-65
2021/05/24 02:39:50;;;;;;;3.60;1.70;;;;;;;9.68;70.24;96187.09;5023889;28;20041;-65
2021/05/24 02:42:16;;;;;;;2.97;1.70;;;;;;;9.68;70.56;96186.28;5024205;28;20084;-65
2021/05/24 02:44:42;;;;;;;3.53;1.80;;;;;;;9.67;70.99;96196.38;5024337;28;20061;-65
2021/05/24 02:47:09;;;;;;;7.60;1.98;;;;;;;9.68;70.92;96192.53;5024129;28;20128;-65
2021/05/24 02:49:35;;;;;;;2.75;1.63;;;;;;;9.67;70.99;96187.41;5025609;28;20060;-65
2021/05/24 02:52:01;;;;;;;3.90;1.70;;;;;;;9.62;71.08;96182.94;5023878;28;20063;-65
2021/05/24 02:54:27;;;;;;;3.83;2.15;;;;;;;9.59;70.94;96178.09;5023870;28;20477;-65
2021/05/24 02:56:53;;;;;;;3.92;2.05;;;;;;;9.56;70.95;96178.75;5024180;28;20140;-65
2021/05/24 02:59:19;;;;;;;2.92;1.55;;;;;;;9.56;71.07;96180.69;5024009;28;20389;-65
2021/05/24 03:01:45;;;;;;;4.18;2.10;;;;;;;9.53;71.18;96173.13;5023973;28;20135;-65
2021/05/24 03:04:12;;;;;;;4.05;1.80;;;;;;;9.50;71.03;96173.75;5024047;28;20045;-65
2021/05/24 03:06:38;;;;;;;5.20;2.10;;;;;;;9.50;71.48;96174.59;5023721;28;20053;-65
2021/05/24 03:09:06;;;;;;;3.55;1.70;;;;;;;9.50;71.55;96173.75;5023801;28;20108;-65
2021/05/24 03:11:32;;;;;;;3.15;1.63;;;;;;;9.51;71.84;96176.19;5023415;28;20049;-65
2021/05/24 03:13:58;;;;;;;3.58;1.88;;;;;;;9.53;71.83;96164.97;5023829;28;20262;-65
2021/05/24 03:16:24;;;;;;;4.63;1.80;;;;;;;9.54;71.92;96167.38;5023658;28;20042;-65
2021/05/24 03:18:50;;;;;;;2.38;1.52;;;;;;;9.53;72.14;96168.50;5023632;28;20041;-65
2021/05/24 03:21:18;;;;;;;3.17;1.80;;;;;;;9.54;71.98;96180.16;5023355;28;20790;-65
2021/05/24 03:23:44;;;;;;;4.10;1.63;;;;;;;9.52;71.86;96182.41;5023421;28;20046;-65
2021/05/24 03:26:10;;;;;;;4.90;2.30;;;;;;;9.52;71.92;96176.97;5023517;28;20042;-65
2021/05/24 03:28:36;;;;;;;2.17;1.60;;;;;;;9.53;72.39;96187.53;5021969;28;20049;-65
2021/05/24 03:31:02;;;;;;;4.43;2.05;;;;;;;9.52;72.52;96190.56;5023504;28;20135;-64
2021/05/24 03:33:28;;;;;;;2.88;1.80;;;;;;;9.52;72.47;96194.09;5023094;28;20061;-65
2021/05/24 03:35:54;;;;;;;6.72;2.17;;;;;;;9.51;72.70;96180.81;5023090;28;20041;-65
2021/05/24 03:38:21;;;;;;;2.75;1.52;;;;;;;9.51;72.61;96176.19;5023409;28;20045;-65
2021/05/24 03:40:47;;;;;;;3.55;1.40;;;;;;;9.51;72.37;96168.03;5023247;28;20045;-66
2021/05/24 03:43:13;;;;;;;2.97;1.67;;;;;;;9.51;72.45;96175.38;5023560;28;20085;-65
2021/05/24 03:45:39;;;;;;;5.22;2.00;;;;;;;9.51;72.75;96173.47;5022137;28;20059;-65
2021/05/24 03:48:06;;;;;;;3.53;1.52;;;;;;;9.50;72.31;96171.88;5021357;28;20088;-65
2021/05/24 03:50:32;;;;;;;4.35;1.75;;;;;;;9.49;72.47;96167.53;5023967;28;20049;-65
2021/05/24 03:52:58;;;;;;;2.80;1.45;;;;;;;9.47;72.05;96175.19;5022538;28;20055;-65
2021/05/24 03:55:25;;;;;;;3.05;1.63;;;;;;;9.45;71.75;96168.47;5022227;28;20132;-65
2021/05/24 03:57:53;;;;;;;3.08;1.50;;;;;;;9.47;72.20;96161.63;5022564;28;20115;-65
2021/05/24 04:00:20;;;;;;;4.03;1.60;;;;;;;9.49;72.41;96167.53;5022427;28;20073;-65
2021/05/24 04:02:47;;;;;;;5.07;1.77;;;;;;;9.49;72.25;96167.53;5022950;28;20049;-65
2021/05/24 04:05:18;;;;;;;3.15;1.40;;;;;;;9.51;72.54;96148.19;5022375;28;20080;-65
2021/05/24 04:07:48;;;;;;;5.82;2.00;;;;;;;9.49;71.92;96151.22;5022666;28;20204;-65
2021/05/24 04:10:16;;;;;;;3.35;1.73;;;;;;;9.49;72.06;96145.78;5022841;28;20050;-65
2021/05/24 04:12:43;;;;;;;3.22;1.30;;;;;;;9.51;71.68;96143.56;5022396;28;20053;-65
2021/05/24 04:15:10;;;;;;;2.78;1.55;;;;;;;9.50;71.93;96136.53;5022217;28;20049;-65
2021/05/24 04:17:39;;;;;;;3.50;1.52;;;;;;;9.52;71.80;96142.44;5022035;28;20500;-65
2021/05/24 04:20:07;;;;;;;2.17;1.27;;;;;;;9.52;71.75;96149.78;5022239;28;20045;-65
2021/05/24 04:22:34;;;;;;;5.15;1.85;;;;;;;9.51;71.34;96151.72;5021896;28;20045;-65
2021/05/24 04:25:00;;;;;;;3.25;1.48;;;;;;;9.50;71.36;96150.13;5022106;28;20054;-65
2021/05/24 04:27:26;;;;;;;4.45;1.88;;;;;;;9.51;71.43;96143.56;5021507;28;20602;-65
2021/05/24 04:29:53;;;;;;;7.78;1.80;;;;;;;9.51;71.14;96138.13;5021910;28;20785;-64
2021/05/24 04:32:19;;;;;;;5.82;1.73;;;;;;;9.47;70.98;96142.59;5022177;28;20054;-65
2021/05/24 04:34:45;;;;;;;4.25;1.70;;;;;;;9.51;72.03;96143.56;5021412;28;20826;-65
2021/05/24 04:37:11;;;;;;;4.53;2.10;;;;;;;9.53;71.70;96130.44;5021766;28;20072;-65
2021/05/24 04:39:41;;;;;;;4.80;1.90;;;;;;;9.52;71.10;96117.97;5021388;28;20037;-65
2021/05/24 04:42:07;;;;;;;3.75;1.70;;;;;;;9.52;71.33;96119.91;5022069;28;20049;-65
2021/05/24 04:44:33;;;;;;;5.30;1.85;;;;;;;9.50;71.40;96120.22;5021814;28;20124;-65
2021/05/24 04:47:00;;;;;;;6.05;2.22;;;;;;;9.43;71.35;96119.88;5020961;28;20677;-65
2021/05/24 04:49:26;;;;;;;3.45;2.03;;;;;;;9.44;71.91;96139.69;5023475;28;20120;-65
2021/05/24 04:51:52;;;;;;;6.30;2.00;;;;;;;9.44;71.40;96142.41;5021329;28;20049;-65
2021/05/24 04:54:18;;;;;;;3.72;2.05;;;;;;;9.41;71.77;96124.81;5021706;28;20096;-65
2021/05/24 04:56:44;;;;;;;3.80;1.63;;;;;;;9.45;72.14;96122.25;5021910;28;20053;-65
2021/05/24 04:59:10;;;;;;;3.45;2.03;;;;;;;9.46;71.91;96124.69;5021452;28;20053;-65
2021/05/24 05:01:36;;;;;;;3.88;2.03;;;;;;;9.48;72.25;96127.06;5021641;28;20111;-64
2021/05/24 05:04:04;;;;;;;4.22;1.60;;;;;;;9.52;72.08;96119.91;5021335;28;20050;-65
2021/05/24 05:06:30;;;;;;;4.60;1.92;;;;;;;9.56;71.70;96113.50;5021353;28;20049;-65
2021/05/24 05:08:56;;;;;;;2.63;1.55;;;;;;;9.61;71.83;96113.38;5021636;28;20050;-65
2021/05/24 05:11:22;;;;;;;4.50;1.55;;;;;;;9.63;71.05;96123.91;5021146;28;20041;-65
2021/05/24 05:13:48;;;;;;;3.50;1.77;;;;;;;9.65;71.25;96116.22;5021332;28;20041;-65
2021/05/24 05:16:14;;;;;;;2.08;1.40;;;;;;;9.68;70.83;96116.41;5021550;28;20041;-65
2021/05/24 05:18:39;;;;;;;4.47;1.50;;;;;;;9.68;70.68;96131.91;5021517;28;20053;-65
2021/05/24 05:21:06;;;;;;;3.47;1.67;;;;;;;9.71;70.15;96130.47;5021439;28;20448;-65
2021/05/24 05:23:32;;;;;;;4.72;1.60;;;;;;;9.77;70.37;96118.34;5021021;28;20049;-65
2021/05/24 05:25:58;;;;;;;2.05;1.30;;;;;;;9.80;69.98;96126.66;5021209;28;20045;-65
2021/05/24 05:28:24;;;;;;;2.60;1.40;;;;;;;9.87;70.37;96124.28;5021050;28;20099;-65
2021/05/24 05:30:51;;;;;;;3.13;1.35;;;;;;;9.95;70.55;96130.81;5021337;28;20997;-65
2021/05/24 05:33:17;;;;;;;2.13;1.20;;;;;;;10.00;70.37;96127.16;5021142;28;20050;-65
2021/05/24 05:35:46;;;;;;;4.13;1.63;;;;;;;10.03;70.15;96132.75;5021283;28;20049;-65
2021/05/24 05:38:14;;;;;;;2.58;1.30;;;;;;;10.04;69.83;96137.06;5020832;28;20045;-65
2021/05/24 05:40:40;;;;;;;2.45;1.20;;;;;;;10.05;69.27;96152.28;5020917;28;20620;-65
2021/05/24 05:43:06;;;;;;;4.28;1.50;;;;;;;10.09;69.61;96157.88;5020714;28;20452;-65
2021/05/24 05:45:32;;;;;;;2.38;1.00;;;;;;;10.10;68.44;96143.16;5020843;28;20045;-65
2021/05/24 05:48:00;;;;;;;4.32;1.23;;;;;;;10.09;68.56;96142.34;5020306;28;20485;-65
2021/05/24 05:50:26;;;;;;;2.72;1.50;;;;;;;10.10;68.60;96129.56;5021600;28;20595;-65
2021/05/24 05:52:52;;;;;;;1.95;1.10;;;;;;;10.10;68.51;96130.34;5020240;28;20625;-65
2021/05/24 05:55:19;;;;;;;2.25;1.08;;;;;;;10.13;69.13;96132.44;5020840;28;20046;-65
2021/05/24 05:57:45;;;;;;;3.28;1.17;;;;;;;10.17;68.91;96119.78;5020379;28;20711;-65
2021/05/24 06:00:12;;;;;;;5.82;2.05;;;;;;;10.23;68.96;96116.91;5020614;28;20049;-65
2021/05/24 06:02:38;;;;;;;2.47;1.20;;;;;;;10.31;69.05;96129.75;5020292;28;20697;-65
2021/05/24 06:05:05;;;;;;;1.70;1.10;;;;;;;10.31;67.98;96116.13;5021199;28;20056;-65
2021/05/24 06:07:31;;;;;;;1.85;1.15;;;;;;;10.34;68.83;96115.50;5020955;28;20101;-65
2021/05/24 06:09:57;;;;;;;2.05;1.20;;;;;;;10.43;69.46;96108.09;5020564;28;20049;-70
2021/05/24 06:12:24;;;;;;;1.95;1.20;;;;;;;10.50;69.49;96097.53;5027576;28;20053;-67
2021/05/24 06:14:50;;;;;;;2.45;1.20;;;;;;;10.53;68.71;96088.72;5029092;28;20046;-68
2021/05/24 06:17:16;;;;;;;3.58;1.58;;;;;;;10.61;69.16;96089.81;5032046;28;20055;-68
2021/05/24 06:19:42;;;;;;;2.20;1.40;;;;;;;10.59;67.89;96087.41;5047177;28;20049;-68
2021/05/24 06:22:08;;;;;;;3.17;1.30;;;;;;;10.60;67.62;96075.41;5046987;28;20519;-67
2021/05/24 06:24:34;;;;;;;3.20;1.20;;;;;;;10.65;68.02;96072.53;5047503;28;20493;-68
2021/05/24 06:27:00;;;;;;;3.63;1.35;;;;;;;10.67;68.39;96067.53;5047367;28;20053;-68
2021/05/24 06:29:27;;;;;;;3.47;1.08;;;;;;;10.75;68.18;96076.00;5047230;28;20045;-67
2021/05/24 06:31:55;;;;;;;1.75;1.25;;;;;;;10.83;68.53;96069.72;5046432;28;20140;-67
2021/05/24 06:34:21;;;;;;;4.15;1.67;;;;;;;10.94;69.32;96077.22;5046369;28;20053;-68
2021/05/24 06:36:47;;;;;;;2.70;1.13;;;;;;;11.03;69.20;96073.66;5045961;28;20466;-68
2021/05/24 06:39:13;;;;;;;2.55;1.40;;;;;;;11.12;69.75;96063.50;5042349;28;20093;-69
2021/05/24 06:41:39;;;;;;;3.53;1.20;;;;;;;11.15;68.62;96066.38;5028831;28;20053;-68
2021/05/24 06:44:06;;;;;;;2.88;1.27;;;;;;;11.23;67.18;96071.00;5031398;28;20098;-69
2021/05/24 06:46:33;;;;;;;5.50;1.20;;;;;;;11.34;67.47;96076.06;5029213;28;20049;-68
2021/05/24 06:48:59;;;;;;;4.03;1.30;;;;;;;11.42;66.80;96072.47;5030281;28;20426;-68
2021/05/24 06:51:25;;;;;;;2.67;1.25;;;;;;;11.50;67.01;96071.63;5028742;28;20071;-67
2021/05/24 06:53:52;;;;;;;2.30;1.45;;;;;;;11.58;66.82;96075.44;5023467;28;20078;-68
2021/05/24 06:56:18;;;;;;;3.15;1.33;;;;;;;11.70;67.08;96084.50;5034546;28;20083;-68
2021/05/24 06:58:44;;;;;;;2.08;1.40;;;;;;;11.84;66.42;96078.00;5026343;28;20480;-67
2021/05/24 07:01:10;;;;;;;3.25;1.30;;;;;;;11.95;65.04;96073.75;5032335;28;20084;-67
2021/05/24 07:03:37;;;;;;;4.93;1.25;;;;;;;12.05;64.40;96076.06;5040756;28;20524;-67
2021/05/24 07:06:03;;;;;;;4.65;1.90;;;;;;;12.13;64.31;96074.41;5031834;28;20045;-68
2021/05/24 07:08:29;;;;;;;5.75;2.95;;;;;;;12.18;64.27;96066.81;5039969;28;20049;-67
2021/05/24 07:10:55;;;;;;;2.85;1.35;;;;;;;12.23;64.07;96063.88;5042341;28;20037;-67
2021/05/24 07:13:21;;;;;;;3.83;1.20;;;;;;;12.29;65.08;96056.28;5033388;28;20060;-67
2021/05/24 07:15:47;;;;;;;2.95;1.40;;;;;;;12.41;64.76;96066.44;5041468;28;20051;-67
2021/05/24 07:18:13;;;;;;;2.08;1.30;;;;;;;12.55;65.30;96050.56;5029825;28;20041;-67
2021/05/24 07:20:40;;;;;;;2.58;1.30;;;;;;;12.62;64.57;96058.97;5031919;28;20048;-68
2021/05/24 07:23:06;;;;;;;2.50;1.08;;;;;;;12.67;63.22;96047.03;5039353;28;20068;-68
2021/05/24 07:25:32;;;;;;;1.88;1.17;;;;;;;12.72;63.39;96047.63;5044299;28;20659;-67
2021/05/24 07:27:58;;;;;;;3.78;1.00;;;;;;;12.79;63.51;96038.88;5044447;28;20049;-67
2021/05/24 07:30:24;;;;;;;2.40;1.00;;;;;;;12.84;63.42;96026.91;5042614;28;20487;-67
2021/05/24 07:32:50;;;;;;;1.25;1.00;;;;;;;12.82;62.09;96029.19;5039591;28;20057;-67
2021/05/24 07:35:17;;;;;;;1.15;0.80;;;;;;;12.85;62.90;96020.34;5038472;28;20122;-69
2021/05/24 07:37:43;;;;;;;3.38;1.27;;;;;;;12.90;62.91;96017.38;5045574;28;20049;-68
2021/05/24 07:40:11;;;;;;;3.53;1.00;;;;;;;12.98;63.01;96022.72;5050117;28;20478;-68
2021/05/24 07:42:38;;;;;;;1.92;1.10;;;;;;;13.06;61.94;96019.09;5052463;28;20041;-68
2021/05/24 07:45:06;;;;;;;3.75;1.13;;;;;;;13.14;62.28;96020.09;5030826;28;20136;-68
2021/05/24 07:47:33;;;;;;;2.40;1.05;;;;;;;13.28;61.26;96020.56;5029637;28;20080;-69
2021/05/24 07:49:59;;;;;;;0.95;0.73;;;;;;;13.35;60.95;96019.19;5029256;28;20054;-69
2021/05/24 07:52:25;;;;;;;2.03;0.93;;;;;;;13.39;61.62;96029.09;5030900;28;20377;-69
2021/05/24 07:54:52;;;;;;;1.67;1.00;;;;;;;13.43;61.20;96037.44;5028646;28;20049;-68
2021/05/24 07:57:18;;;;;;;2.03;1.10;;;;;;;13.45;59.96;96027.72;5026891;28;20104;-67
2021/05/24 07:59:44;;;;;;;1.95;0.95;;;;;;;13.55;60.22;96027.25;5029524;28;20056;-67
2021/05/24 08:02:10;;;;;;;1.48;0.80;;;;;;;13.81;59.85;96018.66;5027695;28;20152;-67
2021/05/24 08:04:36;;;;;;;3.00;1.00;;;;;;;14.45;59.58;96016.88;5029472;28;20152;-68
2021/05/24 08:07:03;;;;;;;2.72;1.00;;;;;;;15.22;57.00;96015.72;5028034;28;20049;-68
2021/05/24 08:09:29;;;;;;;2.65;1.30;;;;;;;15.52;56.25;96018.75;5029230;28;20072;-67
2021/05/24 08:11:56;;;;;;;4.05;2.03;;;;;;;15.68;55.41;96021.50;5030332;28;20531;-68
2021/05/24 08:14:22;;;;;;;3.53;2.15;;;;;;;15.72;55.13;96025.91;5047749;28;20083;-68
2021/05/24 08:16:49;;;;;;;1.85;0.90;;;;;;;15.64;54.18;96026.91;5049172;28;20041;-68
2021/05/24 08:19:16;;;;;;;2.65;1.10;;;;;;;15.63;55.46;96025.31;5047895;28;20049;-67
2021/05/24 08:21:44;;;;;;;2.50;0.90;;;;;;;15.71;55.90;96021.53;5049136;28;20036;-69
2021/05/24 08:24:11;;;;;;;2.22;1.23;;;;;;;15.81;55.39;96014.69;5047647;28;20096;-69
2021/05/24 08:26:37;;;;;;;3.08;1.02;;;;;;;15.80;54.73;96019.41;5049180;28;20170;-68
2021/05/24 08:29:04;;;;;;;2.30;0.82;;;;;;;15.82;56.50;96014.38;5047329;28;20486;-70
2021/05/24 08:31:31;;;;;;;2.47;1.17;;;;;;;15.78;54.73;96021.72;5048999;28;20056;-67
2021/05/24 08:33:57;;;;;;;1.60;0.98;;;;;;;15.70;54.97;96019.97;5047765;28;20140;-67
2021/05/24 08:36:24;;;;;;;3.38;0.90;;;;;;;15.69;54.93;96023.88;5047587;28;20068;-67
2021/05/24 08:38:50;;;;;;;2.45;0.82;;;;;;;15.85;54.79;96023.81;5047931;28;20083;-68
2021/05/24 08:41:16;;;;;;;2.00;0.88;;;;;;;15.81;54.14;96015.50;5047702;28;20056;-68
2021/05/24 08:43:43;;;;;;;1.98;0.98;;;;;;;15.72;53.77;96023.16;5043771;28;20147;-67
2021/05/24 08:46:10;;;;;;;2.33;1.13;;;;;;;15.64;56.49;96026.91;5027194;28;20416;-69
2021/05/24 08:48:37;;;;;;;1.48;1.00;;;;;;;15.59;56.38;96029.88;5028513;28;20049;-70
2021/05/24 08:51:06;;;;;;;3.30;0.95;;;;;;;15.55;56.95;96018.03;5026683;28;20050;-67
2021/05/24 08:53:32;;;;;;;2.35;0.90;;;;;;;15.52;57.11;96024.25;5028725;28;20052;-67
2021/05/24 08:55:59;;;;;;;1.63;0.95;;;;;;;15.46;56.49;96020.19;5026445;28;20539;-67
2021/05/24 08:58:25;;;;;;;2.70;0.80;;;;;;;15.39;56.14;96021.59;5026246;28;20437;-69
2021/05/24 09:00:51;;;;;;;1.65;0.90;;;;;;;15.35;57.57;96019.94;5025987;28;20045;-69
2021/05/24 09:03:20;;;;;;;3.15;1.10;;;;;;;15.36;58.18;96014.09;5025498;28;20041;-69
2021/05/24 09:05:47;;;;;;;5.28;1.27;;;;;;;15.37;58.31;96009.41;5026038;28;20045;-67
2021/05/24 09:08:13;;;;;;;2.72;0.90;;;;;;;15.31;56.86;96008.88;5026274;28;20536;-67
2021/05/24 09:10:42;;;;;;;3.03;0.90;;;;;;;15.28;57.78;96000.56;5027044;28;20575;-67
2021/05/24 09:13:10;;;;;;;1.35;0.70;;;;;;;15.24;57.49;95992.25;5026770;28;20115;-69
2021/05/24 09:15:38;;;;;;;1.60;1.05;;;;;;;15.20;57.59;95990.59;5028402;28;20048;-67
2021/05/24 09:18:05;;;;;;;2.67;1.88;;;;;;;15.13;57.17;95980.22;5026260;28;20045;-67
2021/05/24 09:20:36;;;;;;;4.43;1.13;;;;;;;15.14;58.33;95987.34;5027860;28;20050;-70
2021/05/24 09:23:18;;;;;;;1.85;0.88;;;;;;;15.13;58.22;95985.72;5026280;28;20412;-68
2021/05/24 09:25:58;;;;;;;2.20;0.90;;;;;;;15.08;57.58;95977.75;5026705;28;20088;-68
2021/05/24 09:28:34;;;;;;;2.80;0.90;;;;;;;15.09;58.61;95979.38;5027142;28;20055;-68
2021/05/24 09:31:01;;;;;;;4.43;0.77;;;;;;;15.09;59.13;95979.38;5027049;28;20065;-67
2021/05/24 09:33:28;;;;;;;1.77;0.77;;;;;;;15.06;57.72;95963.63;5027165;28;20041;-68
2021/05/24 09:35:55;;;;;;;1.10;0.60;;;;;;;15.07;57.80;95971.50;5026885;28;20046;-68
2021/05/24 09:38:23;;;;;;;3.53;1.48;;;;;;;15.08;58.36;95966.78;5027466;28;20097;-68
2021/05/24 09:40:54;;;;;;;2.78;1.65;;;;;;;15.03;58.48;95975.28;5026729;28;20057;-68
2021/05/24 09:43:20;;;;;;;2.15;1.10;;;;;;;15.02;58.33;95977.25;5038558;28;20049;-68
2021/05/24 09:45:48;;;;;;;2.47;1.05;;;;;;;15.01;59.96;95972.91;5042716;28;20056;-68
2021/05/24 09:48:14;;;;;;;1.90;1.10;;;;;;;15.06;60.81;95974.59;5026792;28;20053;-68
2021/05/24 09:50:40;;;;;;;1.50;0.90;;;;;;;15.08;60.15;95975.03;5027199;28;20064;-68
2021/05/24 09:53:07;;;;;;;1.98;0.90;;;;;;;15.02;58.96;95979.19;5026102;28;20512;-67
2021/05/24 09:55:36;;;;;;;2.00;0.90;;;;;;;15.02;59.76;95992.91;5027559;28;20053;-68
2021/05/24 09:58:05;;;;;;;2.10;0.90;;;;;;;15.03;61.11;95997.22;5026071;28;20072;-68
2021/05/24 10:00:39;;;;;;;1.55;0.90;;;;;;;15.04;60.01;95993.34;5009570;28;20049;-68
2021/05/24 10:03:07;;;;;;;3.35;1.10;;;;;;;15.06;60.24;95991.03;5025686;28;20057;-68
2021/05/24 10:05:38;;;;;;;1.58;1.00;;;;;;;15.05;59.91;95994.94;5027105;28;20131;-68
2021/05/24 10:08:05;;;;;;;2.80;1.20;;;;;;;15.05;60.13;95989.47;5026205;28;20069;-68
2021/05/24 10:10:32;;;;;;;2.97;1.30;;;;;;;15.10;60.69;95980.97;5027152;28;20045;-67
2021/05/24 10:12:59;;;;;;;1.98;1.10;;;;;;;15.16;61.38;95978.75;5026561;28;20057;-67
2021/05/24 10:15:25;;;;;;;2.45;1.10;;;;;;;15.23;60.82;95978.91;5027436;28;20056;-67
2021/05/24 10:17:58;;;;;;;1.52;0.63;;;;;;;15.30;60.75;95974.38;5026760;28;20563;-67
2021/05/24 10:20:24;;;;;;;1.95;0.98;;;;;;;15.43;60.70;95966.81;5025439;28;20049;-68
2021/05/24 10:22:50;;;;;;;1.40;0.90;;;;;;;15.55;60.29;95965.88;5027390;28;20045;-68
2021/05/24 10:25:17;;;;;;;1.27;0.77;;;;;;;15.67;58.21;95965.00;5025437;28;20129;-69
2021/05/24 10:27:44;;;;;;;2.00;0.88;;;;;;;15.74;58.26;95954.16;5027117;28;20049;-69
2021/05/24 10:30:12;;;;;;;1.20;0.80;;;;;;;15.80;56.78;95959.00;5025897;28;20053;-68
2021/05/24 10:32:53;;;;;;;1.35;0.90;;;;;;;15.85;56.49;95961.47;5026495;28;20049;-68
2021/05/24 10:35:31;;;;;;;1.85;0.95;;;;;;;15.94;55.89;95952.22;5026274;28;20058;-68
2021/05/24 10:37:57;;;;;;;2.78;0.90;;;;;;;16.00;55.59;95957.06;5028456;28;20137;-67
2021/05/24 10:40:23;;;;;;;1.85;1.38;;;;;;;16.08;56.50;95963.50;5030679;28;20068;-68
2021/05/24 10:43:06;;;;;;;2.25;0.95;;;;;;;16.14;56.19;95967.53;5029744;28;20045;-68
2021/05/24 10:45:33;;;;;;;4.10;1.20;;;;;;;16.18;56.63;95958.22;5030157;28;20069;-68
2021/05/24 10:48:01;;;;;;;3.42;1.00;;;;;;;16.20;56.72;95963.31;5029993;28;20050;-68
2021/05/24 10:50:30;;;;;;;1.17;0.80;;;;;;;16.17;55.58;95958.53;5030023;28;20046;-68
2021/05/24 10:52:59;;;;;;;1.42;1.00;;;;;;;16.15;56.53;95949.88;5029342;28;20057;-68
2021/05/24 10:55:37;;;;;;;1.80;0.85;;;;;;;16.09;54.94;95948.59;5030445;28;20056;-68
2021/05/24 10:58:05;;;;;;;3.72;1.30;;;;;;;16.04;57.39;95940.66;5030390;28;20049;-69
2021/05/24 11:00:53;;;;;;;2.65;1.50;;;;;;;15.99;57.33;95932.72;5029663;28;20064;-68
2021/05/24 11:03:20;;;;;;;2.15;1.10;;;;;;;16.01;58.26;95928.44;5030076;28;20045;-68
2021/05/24 11:05:47;;;;;;;3.65;1.20;;;;;;;16.07;58.75;95928.94;5028302;28;20148;-68
2021/05/24 11:08:26;;;;;;;3.10;1.10;;;;;;;16.12;56.44;95925.88;5029835;28;20057;-67
2021/05/24 11:10:53;;;;;;;2.20;1.08;;;;;;;16.15;57.48;95919.66;5029232;28;20043;-67
2021/05/24 11:13:22;;;;;;;1.45;1.30;;;;;;;16.17;58.16;95917.34;5031705;28;20048;-72
2021/05/24 11:15:48;;;;;;;1.70;1.20;;;;;;;16.19;58.68;95909.56;5050582;28;20045;-70
2021/05/24 11:18:19;;;;;;;2.75;1.13;;;;;;;16.18;57.39;95892.28;5049443;28;20056;-69
2021/05/24 11:20:48;;;;;;;2.17;1.00;;;;;;;16.24;58.44;95901.00;5050885;28;20044;-69
2021/05/24 11:23:36;;;;;;;2.05;0.90;;;;;;;16.26;58.06;95892.41;5049268;28;20048;-69
2021/05/24 11:26:16;;;;;;;2.90;0.98;;;;;;;16.29;58.41;95889.72;5029321;28;20141;-70
2021/05/24 11:28:49;;;;;;;1.48;0.75;;;;;;;16.41;58.81;95891.47;5049077;28;20095;-69
2021/05/24 11:31:18;;;;;;;1.67;0.90;;;;;;;16.53;58.87;95879.50;5049320;28;20049;-70
2021/05/24 11:33:51;;;;;;;1.88;1.10;;;;;;;16.70;59.06;95873.47;5049685;28;20049;-69
2021/05/24 11:36:20;;;;;;;4.47;1.15;;;;;;;16.82;58.18;95867.03;5042525;28;20048;-69